createdAt,value
2022-12-15T00:01:59.848Z,99961.09
2022-12-15T00:04:44.696Z,99963.00
2022-12-15T00:07:26.910Z,99970.91
2022-12-15T00:10:09.108Z,99961.84
2022-12-15T00:12:51.309Z,99959.03
2022-12-15T00:15:33.663Z,99955.16
2022-12-15T00:18:19.834Z,99973.53
2022-12-15T00:21:04.619Z,99967.59
2022-12-15T00:23:46.782Z,99968.13
2022-12-15T00:26:28.999Z,99970.53
2022-12-15T00:29:11.497Z,99947.91
2022-12-15T00:31:53.813Z,99964.69
2022-12-15T00:34:36.052Z,99969.78
2022-12-15T00:37:20.894Z,99972.25
2022-12-15T00:39:58.936Z,99972.91
2022-12-15T00:42:30.456Z,99970.97
2022-12-15T00:45:00.624Z,99967.06
2022-12-15T00:47:27.897Z,99945.22
2022-12-15T00:50:10.069Z,99973.22
2022-12-15T00:52:54.944Z,99966.19
2022-12-15T00:55:37.155Z,99951.50
2022-12-15T00:58:19.372Z,99977.78
2022-12-15T01:01:01.574Z,99976.06
2022-12-15T01:03:43.923Z,99983.81
2022-12-15T01:06:27.966Z,99992.16
2022-12-15T01:09:13.469Z,99985.75
2022-12-15T01:11:55.862Z,99978.00
2022-12-15T01:14:38.094Z,99976.13
2022-12-15T01:17:20.714Z,99987.56
2022-12-15T01:20:02.920Z,99997.31
2022-12-15T01:22:32.711Z,99995.22
2022-12-15T01:25:05.061Z,100005.09
2022-12-15T01:27:35.379Z,99997.19
2022-12-15T01:30:05.214Z,100005.19
2022-12-15T01:32:35.057Z,99997.94
2022-12-15T01:35:04.914Z,99929.44
2022-12-15T01:37:35.135Z,99972.09
2022-12-15T01:40:21.563Z,99981.53
2022-12-15T01:42:51.662Z,99990.41
2022-12-15T01:45:49.932Z,99999.06
2022-12-15T01:48:27.277Z,99987.19
2022-12-15T01:51:04.096Z,100008.56
2022-12-15T01:53:38.371Z,100006.72
2022-12-15T01:56:12.307Z,100011.47
2022-12-15T01:58:45.762Z,100010.72
2022-12-15T02:01:15.545Z,100012.66
2022-12-15T02:03:46.851Z,100004.84
2022-12-15T02:06:18.085Z,100015.22
2022-12-15T02:08:49.971Z,100013.38
2022-12-15T02:11:46.308Z,100023.41
2022-12-15T02:14:23.789Z,100038.09
2022-12-15T02:17:07.594Z,100034.84
2022-12-15T02:20:02.360Z,100041.75
2022-12-15T02:22:44.329Z,100019.19
2022-12-15T02:25:33.377Z,100029.00
2022-12-15T02:28:11.154Z,100044.06
2022-12-15T02:31:09.437Z,100041.72
2022-12-15T02:33:47.717Z,100033.38
2022-12-15T02:36:26.943Z,100040.09
2022-12-15T02:38:56.800Z,100039.84
2022-12-15T02:41:42.229Z,99997.94
2022-12-15T02:44:15.920Z,100040.09
2022-12-15T02:47:07.485Z,100054.78
2022-12-15T02:49:49.884Z,100048.38
2022-12-15T02:52:35.112Z,100051.75
2022-12-15T02:55:18.479Z,100045.88
2022-12-15T02:57:57.140Z,100035.84
2022-12-15T03:00:27.399Z,100049.03
2022-12-15T03:02:59.981Z,100047.94
2022-12-15T03:05:29.897Z,100033.16
2022-12-15T03:07:59.662Z,100059.75
2022-12-15T03:10:29.659Z,100052.84
2022-12-15T03:12:59.434Z,100069.25
2022-12-15T03:15:34.889Z,100062.22
2022-12-15T03:18:07.925Z,100069.88
2022-12-15T03:20:38.868Z,100071.44
2022-12-15T03:23:08.621Z,100070.88
2022-12-15T03:25:38.363Z,100073.00
2022-12-15T03:28:08.399Z,100067.78
2022-12-15T03:30:38.317Z,100076.47
2022-12-15T03:33:10.865Z,100074.88
2022-12-15T03:35:40.633Z,100063.31
2022-12-15T03:38:10.453Z,100063.09
2022-12-15T03:40:40.197Z,100075.31
2022-12-15T03:43:09.933Z,100100.00
2022-12-15T03:45:39.746Z,100079.19
2022-12-15T03:48:12.187Z,100086.44
2022-12-15T03:50:41.933Z,100080.06
2022-12-15T03:53:11.742Z,100075.09
2022-12-15T03:55:41.523Z,100076.78
2022-12-15T03:58:11.327Z,100067.50
2022-12-15T04:00:41.595Z,100070.75
2022-12-15T04:03:14.734Z,100078.75
2022-12-15T04:05:44.578Z,100018.69
2022-12-15T04:08:14.384Z,100088.13
2022-12-15T04:10:44.144Z,100092.25
2022-12-15T04:13:14.597Z,100088.13
2022-12-15T04:15:44.377Z,100073.41
2022-12-15T04:18:16.826Z,100087.88
2022-12-15T04:20:44.071Z,100101.41
2022-12-15T04:23:13.870Z,100104.00
2022-12-15T04:25:56.085Z,100099.00
2022-12-15T04:28:38.444Z,100096.66
2022-12-15T04:31:23.618Z,100105.13
2022-12-15T04:34:11.770Z,100103.25
2022-12-15T04:36:55.595Z,100095.06
2022-12-15T04:39:37.903Z,100106.50
2022-12-15T04:42:20.659Z,100082.28
2022-12-15T04:45:04.864Z,100103.94
2022-12-15T04:47:47.098Z,100110.63
2022-12-15T04:50:32.068Z,100109.66
2022-12-15T04:53:22.624Z,100114.97
2022-12-15T04:56:04.805Z,100108.88
2022-12-15T04:58:47.002Z,100113.84
2022-12-15T05:01:29.279Z,100115.81
2022-12-15T05:04:11.579Z,100119.81
2022-12-15T05:06:56.406Z,100106.63
2022-12-15T05:09:38.621Z,100129.00
2022-12-15T05:12:21.102Z,100109.72
2022-12-15T05:15:03.355Z,100127.78
2022-12-15T05:17:46.119Z,100118.81
2022-12-15T05:20:28.396Z,100119.88
2022-12-15T05:23:13.637Z,100125.38
2022-12-15T05:25:55.939Z,100128.66
2022-12-15T05:28:38.357Z,100102.38
2022-12-15T05:31:21.955Z,100114.97
2022-12-15T05:33:51.738Z,100113.53
2022-12-15T05:36:21.532Z,100129.00
2022-12-15T05:38:55.024Z,100125.84
2022-12-15T05:41:25.025Z,100136.13
2022-12-15T05:43:54.878Z,100127.41
2022-12-15T05:46:24.900Z,100141.53
2022-12-15T05:48:54.730Z,100136.56
2022-12-15T05:51:24.478Z,100129.94
2022-12-15T05:53:57.251Z,100135.22
2022-12-15T05:56:28.551Z,100140.50
2022-12-15T05:58:59.292Z,100148.97
2022-12-15T06:01:31.046Z,100152.22
2022-12-15T06:04:01.643Z,100148.13
2022-12-15T06:06:35.256Z,100143.84
2022-12-15T06:09:09.018Z,100155.47
2022-12-15T06:11:42.139Z,100153.69
2022-12-15T06:14:12.181Z,100161.91
2022-12-15T06:16:50.046Z,100156.72
2022-12-15T06:19:22.569Z,100162.66
2022-12-15T06:21:56.169Z,100171.66
2022-12-15T06:24:28.754Z,100154.53
2022-12-15T06:26:59.415Z,100175.31
2022-12-15T06:29:29.418Z,100170.13
2022-12-15T06:31:59.299Z,100178.88
2022-12-15T06:34:29.312Z,100168.81
2022-12-15T06:37:00.134Z,100180.81
2022-12-15T06:39:35.726Z,100180.41
2022-12-15T06:42:05.663Z,100173.84
2022-12-15T06:44:35.514Z,100180.94
2022-12-15T06:47:10.287Z,100190.72
2022-12-15T06:49:40.198Z,100188.66
2022-12-15T06:52:11.107Z,100193.09
2022-12-15T06:54:44.556Z,100144.59
2022-12-15T06:57:18.164Z,100193.53
2022-12-15T06:59:48.254Z,100195.16
2022-12-15T07:02:26.890Z,100179.69
2022-12-15T07:05:04.247Z,100185.31
2022-12-15T07:07:34.141Z,100193.09
2022-12-15T07:10:11.385Z,100196.50
2022-12-15T07:12:41.182Z,100200.63
2022-12-15T07:15:13.403Z,100209.69
2022-12-15T07:17:43.581Z,100207.44
2022-12-15T07:20:14.682Z,100211.28
2022-12-15T07:22:46.498Z,100219.94
2022-12-15T07:25:22.906Z,100205.53
2022-12-15T07:27:53.775Z,100228.34
2022-12-15T07:30:24.730Z,100222.09
2022-12-15T07:32:54.609Z,100232.97
2022-12-15T07:35:28.230Z,100249.56
2022-12-15T07:37:59.129Z,100246.97
2022-12-15T07:40:33.610Z,100253.25
2022-12-15T07:43:04.402Z,100248.69
2022-12-15T07:45:34.240Z,100249.81
2022-12-15T07:48:04.105Z,100239.41
2022-12-15T07:50:33.923Z,100216.69
2022-12-15T07:53:03.739Z,100261.28
2022-12-15T07:56:04.979Z,100272.31
2022-12-15T07:58:26.124Z,100271.69
2022-12-15T08:00:56.563Z,100249.50
2022-12-15T08:03:26.668Z,100272.56
2022-12-15T08:06:02.027Z,100274.31
2022-12-15T08:08:35.870Z,100279.03
2022-12-15T08:11:11.130Z,100268.16
2022-12-15T08:16:33.364Z,100282.72
2022-12-15T08:19:03.251Z,100282.38
2022-12-15T08:21:33.915Z,100296.91
2022-12-15T08:24:04.304Z,100286.09
2022-12-15T08:26:37.930Z,100284.22
2022-12-15T08:32:03.075Z,100287.97
2022-12-15T08:34:33.183Z,100286.25
2022-12-15T08:37:03.167Z,100287.19
2022-12-15T08:39:33.029Z,100272.25
2022-12-15T08:42:05.440Z,100295.41
2022-12-15T08:44:35.405Z,100286.78
2022-12-15T08:47:05.436Z,100274.34
2022-12-15T08:49:35.263Z,100300.53
2022-12-15T08:52:05.087Z,100304.31
2022-12-15T08:54:35.175Z,100286.63
2022-12-15T08:57:08.053Z,100300.81
2022-12-15T08:59:37.926Z,100291.59
2022-12-15T09:02:08.099Z,100317.06
2022-12-15T09:04:40.923Z,100306.09
2022-12-15T09:07:10.776Z,100315.63
2022-12-15T09:09:41.513Z,100322.91
2022-12-15T09:12:15.329Z,100323.75
2022-12-15T09:14:45.216Z,100318.47
2022-12-15T09:17:15.898Z,100314.81
2022-12-15T09:19:45.851Z,100322.34
2022-12-15T09:22:15.653Z,100314.94
2022-12-15T09:24:45.445Z,100318.13
2022-12-15T09:27:17.846Z,100305.66
2022-12-15T09:29:47.656Z,100319.38
2022-12-15T09:32:17.626Z,100333.63
2022-12-15T09:34:47.569Z,100320.75
2022-12-15T09:37:20.518Z,100336.53
2022-12-15T09:39:50.540Z,100330.53
2022-12-15T09:42:27.874Z,100340.06
2022-12-15T09:45:04.808Z,100311.03
2022-12-15T09:47:43.514Z,100330.25
2022-12-15T09:50:15.640Z,100326.13
2022-12-15T09:52:51.842Z,100332.28
2022-12-15T09:55:25.475Z,100339.09
2022-12-15T09:57:59.810Z,100336.41
2022-12-15T10:00:35.900Z,100333.34
2022-12-15T10:03:35.776Z,100341.19
2022-12-15T10:06:17.185Z,100285.03
2022-12-15T10:08:51.194Z,100341.78
2022-12-15T10:11:28.991Z,100335.41
2022-12-15T10:14:10.416Z,100339.72
2022-12-15T10:16:53.542Z,100344.84
2022-12-15T10:19:32.512Z,100341.19
2022-12-15T10:22:02.825Z,100343.88
2022-12-15T10:25:08.613Z,100354.09
2022-12-15T10:27:44.198Z,100348.59
2022-12-15T10:30:17.904Z,100348.00
2022-12-15T10:32:53.691Z,100341.25
2022-12-15T10:35:27.720Z,100344.78
2022-12-15T10:38:01.675Z,100343.53
2022-12-15T10:40:57.082Z,100347.38
2022-12-15T10:43:31.209Z,100350.84
2022-12-15T10:46:14.471Z,100320.06
2022-12-15T10:48:48.567Z,100327.84
2022-12-15T10:51:24.579Z,100345.06
2022-12-15T10:53:56.723Z,100340.31
2022-12-15T10:56:33.283Z,100338.63
2022-12-15T10:59:06.325Z,100336.41
2022-12-15T11:01:38.850Z,100335.44
2022-12-15T11:04:28.428Z,100339.78
2022-12-15T11:07:02.282Z,100342.44
2022-12-15T11:09:36.857Z,100340.47
2022-12-15T11:12:32.079Z,100343.34
2022-12-15T11:15:01.979Z,100348.72
2022-12-15T11:17:44.494Z,100343.47
2022-12-15T11:20:23.530Z,100348.72
2022-12-15T11:22:59.658Z,100335.28
2022-12-15T11:25:38.039Z,100338.72
2022-12-15T11:28:17.266Z,100343.97
2022-12-15T11:30:52.132Z,100345.97
2022-12-15T11:33:25.773Z,100303.75
2022-12-15T11:36:10.054Z,100354.38
2022-12-15T11:38:46.506Z,100348.41
2022-12-15T11:41:31.072Z,100348.94
2022-12-15T11:44:27.288Z,100354.47
2022-12-15T11:47:10.160Z,100355.50
2022-12-15T11:50:09.638Z,100352.56
2022-12-15T11:52:53.117Z,100354.81
2022-12-15T11:55:39.189Z,100329.91
2022-12-15T11:58:48.632Z,100299.31
2022-12-15T12:01:27.640Z,100342.91
2022-12-15T12:04:08.046Z,100346.53
2022-12-15T12:06:50.902Z,100348.78
2022-12-15T12:09:33.119Z,100351.66
2022-12-15T12:12:14.533Z,100326.63
2022-12-15T12:15:00.643Z,100334.09
2022-12-15T12:17:41.897Z,100341.97
2022-12-15T12:20:19.456Z,100312.47
2022-12-15T12:23:02.388Z,100345.59
2022-12-15T12:25:37.827Z,100317.66
2022-12-15T12:28:17.231Z,100338.19
2022-12-15T12:30:50.432Z,100340.47
2022-12-15T12:33:32.870Z,100321.63
2022-12-15T12:36:07.354Z,100324.34
2022-12-15T12:38:46.267Z,100317.59
2022-12-15T12:41:30.135Z,100326.84
2022-12-15T12:44:03.879Z,100333.94
2022-12-15T12:46:39.631Z,100321.84
2022-12-15T12:49:26.070Z,100327.34
2022-12-15T12:51:59.605Z,100316.97
2022-12-15T12:54:55.095Z,100323.91
2022-12-15T12:57:50.121Z,100327.81
2022-12-15T13:00:26.600Z,100328.41
2022-12-15T13:03:17.918Z,100331.44
2022-12-15T13:05:50.537Z,100318.19
2022-12-15T13:08:53.607Z,100316.97
2022-12-15T13:11:58.156Z,100316.16
2022-12-15T13:14:38.460Z,100299.34
2022-12-15T13:17:27.451Z,100303.97
2022-12-15T13:20:18.679Z,100315.81
2022-12-15T13:22:48.781Z,100306.91
2022-12-15T13:25:38.136Z,100315.56
2022-12-15T13:28:42.790Z,100309.72
2022-12-15T13:31:49.765Z,100305.81
2022-12-15T13:34:27.126Z,100304.75
2022-12-15T13:37:05.545Z,100296.66
2022-12-15T13:39:57.828Z,100262.59
2022-12-15T13:42:56.266Z,100303.25
2022-12-15T13:45:58.166Z,100303.50
2022-12-15T13:48:34.744Z,100311.06
2022-12-15T13:51:27.320Z,100309.44
2022-12-15T13:54:02.147Z,100294.97
2022-12-15T13:56:47.518Z,100314.41
2022-12-15T13:59:29.843Z,100295.81
2022-12-15T14:02:24.979Z,100302.81
2022-12-15T14:05:21.119Z,100288.97
2022-12-15T14:07:54.916Z,100308.13
2022-12-15T14:10:28.199Z,100317.25
2022-12-15T14:13:00.805Z,100318.03
2022-12-15T14:15:33.787Z,100319.03
2022-12-15T14:18:06.676Z,100307.81
2022-12-15T14:20:43.346Z,100310.97
2022-12-15T14:23:21.644Z,100315.53
2022-12-15T14:26:07.234Z,100311.63
2022-12-15T14:28:38.786Z,100321.56
2022-12-15T14:31:14.139Z,100320.66
2022-12-15T14:33:50.643Z,100311.91
2022-12-15T14:36:23.482Z,100314.13
2022-12-15T14:38:55.373Z,100309.81
2022-12-15T14:41:27.830Z,100296.53
2022-12-15T14:46:54.966Z,100313.56
2022-12-15T14:49:31.137Z,100312.94
2022-12-15T14:52:05.129Z,100309.72
2022-12-15T14:54:38.341Z,100316.88
2022-12-15T14:57:17.574Z,100309.63
2022-12-15T14:59:51.343Z,100318.56
2022-12-15T15:02:26.887Z,100283.81
2022-12-15T15:03:06.023Z,100310.84
2022-12-15T15:05:05.413Z,100313.69
2022-12-15T15:07:35.965Z,100299.09
2022-12-15T15:10:06.652Z,100300.13
2022-12-15T15:12:47.217Z,100304.44
2022-12-15T15:15:19.232Z,100294.78
2022-12-15T15:17:53.798Z,100296.75
2022-12-15T15:20:30.197Z,100287.00
2022-12-15T15:23:16.001Z,100303.41
2022-12-15T15:25:53.971Z,100296.59
2022-12-15T15:28:28.064Z,100268.00
2022-12-15T15:31:05.281Z,100287.69
2022-12-15T15:33:35.484Z,100295.91
2022-12-15T15:36:14.018Z,100291.53
2022-12-15T15:38:46.772Z,100269.94
2022-12-15T15:41:20.087Z,100287.66
2022-12-15T15:43:50.023Z,100295.34
2022-12-15T15:46:25.588Z,100297.06
2022-12-15T15:48:58.639Z,100295.25
2022-12-15T15:51:33.202Z,100301.75
2022-12-15T15:54:05.605Z,100265.00
2022-12-15T15:56:35.415Z,100284.09
2022-12-15T15:59:13.541Z,100298.03
2022-12-15T16:01:43.549Z,100300.19
2022-12-15T16:04:13.467Z,100297.78
2022-12-15T16:06:47.829Z,100297.06
2022-12-15T16:09:18.998Z,100303.72
2022-12-15T16:11:49.463Z,100306.84
2022-12-15T16:14:20.390Z,100302.00
2022-12-15T16:16:53.972Z,100302.34
2022-12-15T16:19:23.989Z,100298.97
2022-12-15T16:21:56.369Z,100305.38
2022-12-15T16:24:26.135Z,100315.50
2022-12-15T16:26:55.881Z,100324.81
2022-12-15T16:29:25.973Z,100314.00
2022-12-15T16:31:56.129Z,100318.25
2022-12-15T16:34:25.997Z,100314.53
2022-12-15T16:36:58.558Z,100310.13
2022-12-15T16:39:31.915Z,100320.25
2022-12-15T16:42:02.993Z,100295.19
2022-12-15T16:44:33.198Z,100299.13
2022-12-15T16:47:04.039Z,100320.56
2022-12-15T16:49:39.853Z,100334.56
2022-12-15T16:52:22.769Z,100291.75
2022-12-15T16:54:53.742Z,100322.81
2022-12-15T16:57:23.535Z,100249.66
2022-12-15T16:59:57.113Z,100334.22
2022-12-15T17:02:30.335Z,100341.34
2022-12-15T17:05:00.214Z,100347.03
2022-12-15T17:07:33.557Z,100340.31
2022-12-15T17:10:08.370Z,100340.47
2022-12-15T17:12:38.202Z,100340.44
2022-12-15T17:15:21.126Z,100343.78
2022-12-15T17:17:52.694Z,100342.53
2022-12-15T17:20:30.976Z,100341.97
2022-12-15T17:23:10.491Z,100337.91
2022-12-15T17:28:37.849Z,100352.22
2022-12-15T17:31:07.951Z,100350.41
2022-12-15T17:33:37.978Z,100347.59
2022-12-15T17:36:18.987Z,100351.25
2022-12-15T17:38:55.921Z,100353.75
2022-12-15T17:41:58.207Z,100358.59
2022-12-15T17:44:39.290Z,100366.50
2022-12-15T17:47:10.652Z,100364.97
2022-12-15T17:49:41.898Z,100367.88
2022-12-15T17:52:24.273Z,100364.16
2022-12-15T17:54:59.259Z,100368.66
2022-12-15T17:57:31.622Z,100362.59
2022-12-15T18:00:02.030Z,100369.16
2022-12-15T18:02:35.271Z,100370.78
2022-12-15T18:05:07.539Z,100373.56
2022-12-15T18:07:37.671Z,100388.38
2022-12-15T18:10:24.051Z,100381.94
2022-12-15T18:12:54.009Z,100389.84
2022-12-15T18:15:25.565Z,100382.94
2022-12-15T18:17:58.134Z,100390.34
2022-12-15T18:20:34.921Z,100395.34
2022-12-15T18:23:04.822Z,100379.38
2022-12-15T18:25:37.150Z,100394.09
2022-12-15T18:28:20.036Z,100388.31
2022-12-15T18:30:52.252Z,100375.47
2022-12-15T18:33:22.336Z,100409.81
2022-12-15T18:35:54.151Z,100406.34
2022-12-15T18:38:26.300Z,100410.47
2022-12-15T18:41:02.188Z,100409.03
2022-12-15T18:43:34.471Z,100426.44
2022-12-15T18:46:05.419Z,100425.28
2022-12-15T18:48:37.706Z,100428.59
2022-12-15T18:51:18.029Z,100428.00
2022-12-15T18:53:50.500Z,100423.47
2022-12-15T18:56:25.243Z,100426.28
2022-12-15T18:58:56.073Z,100421.09
2022-12-15T19:01:26.008Z,100398.56
2022-12-15T19:03:56.987Z,100419.34
2022-12-15T19:06:35.042Z,100408.56
2022-12-15T19:09:05.862Z,100416.91
2022-12-15T19:11:38.209Z,100416.91
2022-12-15T19:14:38.011Z,100354.56
2022-12-15T19:17:26.273Z,100418.47
2022-12-15T19:20:09.437Z,100424.13
2022-12-15T19:22:41.234Z,100417.13
2022-12-15T19:25:15.286Z,100413.66
2022-12-15T19:27:50.063Z,100407.91
2022-12-15T19:30:22.189Z,100407.03
2022-12-15T19:32:52.734Z,100359.41
2022-12-15T19:35:30.072Z,100413.66
2022-12-15T19:38:03.962Z,100387.97
2022-12-15T19:40:35.917Z,100408.22
2022-12-15T19:43:08.432Z,100396.19
2022-12-15T19:45:39.287Z,100364.78
2022-12-15T19:48:10.122Z,100394.25
2022-12-15T19:50:40.745Z,100403.41
2022-12-15T19:53:17.556Z,100393.09
2022-12-15T19:55:47.529Z,100417.19
2022-12-15T19:58:30.961Z,100417.94
2022-12-15T20:01:03.267Z,100426.03
2022-12-15T20:03:34.122Z,100406.50
2022-12-15T20:06:05.518Z,100408.72
2022-12-15T20:08:38.295Z,100402.75
2022-12-15T20:11:16.909Z,100415.84
2022-12-15T20:13:51.058Z,100412.09
2022-12-15T20:16:22.980Z,100399.03
2022-12-15T20:18:56.259Z,100399.50
2022-12-15T20:21:34.035Z,100371.31
2022-12-15T20:24:09.402Z,100398.63
2022-12-15T20:26:42.091Z,100385.56
2022-12-15T20:29:27.250Z,100392.41
2022-12-15T20:31:59.067Z,100408.66
2022-12-15T20:34:29.874Z,100412.59
2022-12-15T20:37:00.945Z,100423.75
2022-12-15T20:39:32.835Z,100409.72
2022-12-15T20:42:02.667Z,100421.25
2022-12-15T20:44:36.055Z,100341.81
2022-12-15T20:47:06.852Z,100420.09
2022-12-15T20:49:37.704Z,100404.97
2022-12-15T20:52:08.525Z,100409.34
2022-12-15T20:54:39.403Z,100420.00
2022-12-15T20:57:09.226Z,100407.97
2022-12-15T20:59:42.635Z,100410.47
2022-12-15T21:02:21.393Z,100401.50
2022-12-15T21:04:53.422Z,100399.00
2022-12-15T21:07:24.139Z,100389.41
2022-12-15T21:09:56.098Z,100413.56
2022-12-15T21:12:28.187Z,100421.19
2022-12-15T21:15:01.570Z,100418.38
2022-12-15T21:17:34.327Z,100429.03
2022-12-15T21:20:10.029Z,100425.22
2022-12-15T21:22:41.000Z,100405.47
2022-12-15T21:25:22.766Z,100412.88
2022-12-15T21:27:53.486Z,100414.59
2022-12-15T21:30:26.326Z,100401.50
2022-12-15T21:32:56.071Z,100427.66
2022-12-15T21:38:31.581Z,100417.91
2022-12-15T21:41:04.761Z,100433.06
2022-12-15T21:43:38.067Z,100432.22
2022-12-15T21:46:17.479Z,100401.06
2022-12-15T21:49:00.146Z,100423.59
2022-12-15T21:51:32.990Z,100414.31
2022-12-15T21:54:03.054Z,100424.31
2022-12-15T21:56:32.843Z,100404.03
2022-12-15T21:59:03.630Z,100426.56
2022-12-15T22:01:37.137Z,100442.84
2022-12-15T22:04:18.039Z,100443.09
2022-12-15T22:06:50.431Z,100445.81
2022-12-15T22:09:22.897Z,100440.25
2022-12-15T22:11:55.707Z,100430.50
2022-12-15T22:14:28.511Z,100452.13
2022-12-15T22:17:02.966Z,100390.88
2022-12-15T22:19:32.721Z,100444.44
2022-12-15T22:22:02.458Z,100451.81
2022-12-15T22:24:32.165Z,100444.69
2022-12-15T22:27:02.914Z,100455.63
2022-12-15T22:29:35.502Z,100445.00
2022-12-15T22:32:14.317Z,100444.69
2022-12-15T22:34:44.548Z,100463.78
2022-12-15T22:37:15.835Z,100459.88
2022-12-15T22:39:45.679Z,100462.91
2022-12-15T22:42:19.131Z,100473.22
2022-12-15T22:44:51.068Z,100429.91
2022-12-15T22:47:24.107Z,100472.78
2022-12-15T22:49:55.005Z,100447.59
2022-12-15T22:52:26.097Z,100462.91
2022-12-15T22:54:58.344Z,100473.75
2022-12-15T22:57:30.836Z,100467.03
2022-12-15T23:00:07.449Z,100477.22
2022-12-15T23:02:44.342Z,100484.06
2022-12-15T23:05:19.423Z,100481.34
2022-12-15T23:07:49.997Z,100472.66
2022-12-15T23:10:35.926Z,100471.78
2022-12-15T23:13:05.805Z,100484.25
2022-12-15T23:15:48.403Z,100485.59
2022-12-15T23:18:21.839Z,100478.97
2022-12-15T23:20:54.025Z,100478.53
2022-12-15T23:23:25.967Z,100480.91
2022-12-15T23:25:57.697Z,100491.75
2022-12-15T23:28:27.551Z,100493.28
2022-12-15T23:30:58.211Z,100473.06
2022-12-15T23:33:32.896Z,100473.06
2022-12-15T23:36:05.243Z,100490.66
2022-12-15T23:38:35.114Z,100423.72
2022-12-15T23:41:04.958Z,100492.25
2022-12-15T23:43:37.820Z,100504.59
2022-12-15T23:46:09.679Z,100491.44
2022-12-15T23:48:45.659Z,100496.34
2022-12-15T23:51:18.442Z,100505.78
2022-12-15T23:53:50.455Z,100499.06
2022-12-15T23:56:24.027Z,100501.84
2022-12-15T23:58:57.740Z,100463.41
